createdAt,value
2022-11-12T00:09:07.093Z,48.47
2022-11-12T00:19:08.319Z,48.81
2022-11-12T00:29:09.633Z,48.85
2022-11-12T00:39:10.851Z,47.95
2022-11-12T00:49:12.070Z,48.52
2022-11-12T00:59:13.337Z,49.05
2022-11-12T01:09:14.586Z,47.72
2022-11-12T01:19:15.827Z,48.90
2022-11-12T01:29:17.069Z,48.81
2022-11-12T01:39:18.335Z,47.85
2022-11-12T01:49:19.581Z,47.47
2022-11-12T01:59:20.833Z,47.22
2022-11-12T02:09:22.075Z,47.25
2022-11-12T02:19:23.299Z,46.83
2022-11-12T02:29:24.549Z,47.41
2022-11-12T02:39:25.795Z,46.31
2022-11-12T02:49:27.034Z,45.65
2022-11-12T02:59:28.353Z,46.18
2022-11-12T03:09:29.580Z,45.70
2022-11-12T03:19:30.843Z,46.39
2022-11-12T03:29:32.077Z,45.51
2022-11-12T03:39:33.323Z,45.79
2022-11-12T03:49:34.552Z,44.89
2022-11-12T03:59:35.766Z,46.15
2022-11-12T04:09:37.014Z,45.08
2022-11-12T04:19:38.217Z,46.42
2022-11-12T04:29:39.499Z,44.71
2022-11-12T04:39:40.774Z,44.34
2022-11-12T04:49:42.026Z,45.55
2022-11-12T04:59:43.325Z,45.22
2022-11-12T05:09:44.563Z,43.75
2022-11-12T05:19:45.796Z,44.14
2022-11-12T05:29:47.031Z,43.06
2022-11-12T05:39:48.308Z,44.48
2022-11-12T05:49:49.545Z,42.37
2022-11-12T05:59:50.836Z,42.50
2022-11-12T06:09:52.077Z,42.79
2022-11-12T06:19:53.303Z,42.11
2022-11-12T06:29:54.549Z,43.02
2022-11-12T06:39:55.722Z,42.63
2022-11-12T06:49:56.980Z,41.82
2022-11-12T06:59:58.246Z,41.67
2022-11-12T07:09:59.547Z,41.71
2022-11-12T07:20:03.634Z,42.67
2022-11-12T07:30:05.551Z,44.44
2022-11-12T07:40:06.903Z,46.21
2022-11-12T07:50:08.168Z,48.55
2022-11-12T08:00:15.565Z,49.96
2022-11-12T08:10:23.556Z,50.78
2022-11-12T08:20:31.546Z,51.41
2022-11-12T08:30:40.540Z,52.16
2022-11-12T08:40:48.542Z,52.98
2022-11-12T08:51:01.733Z,54.13
2022-11-12T09:01:04.638Z,54.57
2022-11-12T09:11:09.946Z,55.65
2022-11-12T09:21:14.027Z,55.82
2022-11-12T09:31:22.948Z,55.63
2022-11-12T09:41:30.792Z,55.48
2022-11-12T09:51:39.703Z,55.55
2022-11-12T10:01:47.818Z,55.23
2022-11-12T10:11:58.784Z,55.56
2022-11-12T10:22:04.736Z,55.14
2022-11-12T10:32:12.670Z,54.82
2022-11-12T10:42:20.619Z,55.15
2022-11-12T10:52:28.919Z,55.09
2022-11-12T11:02:42.565Z,54.80
2022-11-12T11:12:51.133Z,55.10
2022-11-12T11:23:01.706Z,54.79
2022-11-12T11:33:08.418Z,55.47
2022-11-12T11:43:17.867Z,55.95
2022-11-12T11:53:28.297Z,55.43
2022-11-12T12:35:07.987Z,56.11
2022-11-12T12:45:16.939Z,56.04
2022-11-12T14:40:10.070Z,57.09
2022-11-12T14:50:20.229Z,56.59
2022-11-12T15:00:47.068Z,56.61
2022-11-12T15:10:48.910Z,55.72
2022-11-12T15:20:54.604Z,55.59
2022-11-12T15:30:59.794Z,55.17
2022-11-12T15:41:01.150Z,54.89
2022-11-12T15:51:08.630Z,54.80
2022-11-12T16:01:10.063Z,54.36
2022-11-12T16:11:11.476Z,53.96
2022-11-12T16:21:19.515Z,53.82
2022-11-12T16:31:22.127Z,53.55
2022-11-12T16:41:23.502Z,53.61
2022-11-12T16:51:24.853Z,53.38
2022-11-12T17:01:26.308Z,53.38
2022-11-12T17:21:56.821Z,53.57
2022-11-12T17:31:58.485Z,53.28
2022-11-12T17:42:01.006Z,53.22
2022-11-12T17:52:02.314Z,53.31
2022-11-12T18:02:03.610Z,53.27
2022-11-12T18:12:05.061Z,52.99
2022-11-12T18:22:06.390Z,53.11
2022-11-12T18:32:07.783Z,52.66
2022-11-12T18:42:09.205Z,52.61
2022-11-12T18:52:10.576Z,52.50
2022-11-12T19:02:11.820Z,52.11
2022-11-12T19:12:13.140Z,51.97
2022-11-12T19:22:14.495Z,51.65
2022-11-12T19:32:15.916Z,51.40
2022-11-12T19:42:17.249Z,51.13
2022-11-12T19:52:18.603Z,51.27
2022-11-12T20:02:19.826Z,50.61
2022-11-12T20:12:21.158Z,50.45
2022-11-12T20:22:22.422Z,50.75
2022-11-12T20:32:23.767Z,50.41
2022-11-12T20:42:25.150Z,50.15
2022-11-12T20:52:26.575Z,49.96
2022-11-12T21:02:27.817Z,50.29
2022-11-12T21:12:29.228Z,49.84
2022-11-12T21:22:30.598Z,49.62
2022-11-12T21:32:31.834Z,49.63
2022-11-12T21:42:33.150Z,49.45
2022-11-12T21:52:34.369Z,49.12
2022-11-12T22:02:35.626Z,49.01
2022-11-12T22:12:36.905Z,49.49
2022-11-12T22:22:38.158Z,48.77
2022-11-12T22:32:39.389Z,48.89
2022-11-12T22:42:40.629Z,49.08
2022-11-12T22:52:47.289Z,49.30
2022-11-12T23:02:51.301Z,49.14
2022-11-12T23:12:52.660Z,49.04
2022-11-12T23:22:53.922Z,49.00
2022-11-12T23:32:55.171Z,48.88
2022-11-12T23:42:56.415Z,48.90
2022-11-12T23:52:57.658Z,48.64
